createdAt,value
2022-08-29T00:00:43.926Z,47.26
2022-08-29T00:01:43.928Z,41.89
2022-08-29T00:02:43.915Z,41.00
2022-08-29T00:03:43.909Z,41.29
2022-08-29T00:04:44.018Z,46.64
2022-08-29T00:05:43.882Z,56.51
2022-08-29T00:06:44.874Z,41.72
2022-08-29T00:07:43.867Z,46.98
2022-08-29T00:08:43.856Z,51.38
2022-08-29T00:09:43.881Z,52.73
2022-08-29T00:10:43.841Z,54.78
2022-08-29T00:11:45.273Z,64.73
2022-08-29T00:12:43.830Z,61.28
2022-08-29T00:13:43.823Z,55.32
2022-08-29T00:14:43.841Z,49.40
2022-08-29T00:15:44.454Z,57.22
2022-08-29T00:16:43.834Z,47.12
2022-08-29T00:17:43.780Z,53.30
2022-08-29T00:18:43.770Z,41.82
2022-08-29T00:19:43.791Z,41.99
2022-08-29T00:20:43.766Z,41.77
2022-08-29T00:21:43.752Z,41.88
2022-08-29T00:22:43.752Z,55.19
2022-08-29T00:23:43.735Z,42.13
2022-08-29T00:24:43.763Z,41.89
2022-08-29T00:25:43.720Z,51.64
2022-08-29T00:26:43.712Z,51.58
2022-08-29T00:27:47.609Z,62.26
2022-08-29T00:28:44.695Z,57.37
2022-08-29T00:29:43.719Z,47.11
2022-08-29T00:30:43.674Z,49.02
2022-08-29T00:31:43.744Z,48.94
2022-08-29T00:32:43.665Z,43.33
2022-08-29T00:33:43.656Z,47.03
2022-08-29T00:34:43.678Z,53.16
2022-08-29T00:35:43.645Z,45.04
2022-08-29T00:36:49.116Z,60.69
2022-08-29T00:37:44.624Z,43.11
2022-08-29T00:38:43.607Z,54.47
2022-08-29T00:39:43.618Z,58.41
2022-08-29T00:40:45.027Z,45.67
2022-08-29T00:41:44.577Z,42.43
2022-08-29T00:42:43.578Z,59.67
2022-08-29T00:43:43.572Z,42.76
2022-08-29T00:44:43.567Z,42.12
2022-08-29T00:45:43.647Z,52.48
2022-08-29T00:46:43.544Z,58.07
2022-08-29T00:47:43.535Z,50.03
2022-08-29T00:48:43.528Z,49.45
2022-08-29T00:49:43.517Z,48.23
2022-08-29T00:50:43.551Z,58.65
2022-08-29T00:51:43.507Z,51.47
2022-08-29T00:52:43.491Z,45.88
2022-08-29T00:53:43.492Z,48.54
2022-08-29T00:54:43.470Z,57.14
2022-08-29T00:55:43.490Z,63.08
2022-08-29T00:56:44.454Z,63.27
2022-08-29T00:57:43.452Z,56.38
2022-08-29T00:58:43.435Z,54.42
2022-08-29T00:59:43.430Z,49.73
2022-08-29T01:00:43.528Z,49.48
2022-08-29T01:01:43.432Z,42.59
2022-08-29T01:02:43.448Z,42.47
2022-08-29T01:03:43.396Z,65.37
2022-08-29T01:04:43.384Z,49.58
2022-08-29T01:05:43.406Z,59.49
2022-08-29T01:06:43.387Z,65.62
2022-08-29T01:07:43.372Z,44.26
2022-08-29T01:08:43.355Z,42.06
2022-08-29T01:09:43.346Z,42.78
2022-08-29T01:10:43.368Z,49.71
2022-08-29T01:11:43.331Z,49.02
2022-08-29T01:12:43.323Z,53.73
2022-08-29T01:13:43.316Z,51.07
2022-08-29T01:14:43.306Z,41.70
2022-08-29T01:15:43.325Z,53.89
2022-08-29T01:16:43.329Z,43.74
2022-08-29T01:17:43.285Z,59.12
2022-08-29T01:18:43.270Z,56.14
2022-08-29T01:19:43.269Z,48.20
2022-08-29T01:20:43.284Z,53.28
2022-08-29T01:21:43.247Z,63.77
2022-08-29T01:22:43.265Z,62.84
2022-08-29T01:23:43.235Z,58.69
2022-08-29T01:24:43.223Z,60.76
2022-08-29T01:25:43.252Z,54.46
2022-08-29T01:26:43.212Z,50.41
2022-08-29T01:27:43.189Z,51.22
2022-08-29T01:28:43.195Z,54.75
2022-08-29T01:29:43.178Z,47.81
2022-08-29T01:30:43.209Z,62.56
2022-08-29T01:31:57.372Z,44.32
2022-08-29T01:32:44.149Z,60.09
2022-08-29T01:33:43.145Z,43.18
2022-08-29T01:34:43.134Z,48.05
2022-08-29T01:35:43.123Z,42.25
2022-08-29T01:36:43.150Z,62.09
2022-08-29T01:37:43.105Z,47.09
2022-08-29T01:38:43.116Z,59.98
2022-08-29T01:39:43.086Z,66.44
2022-08-29T01:40:43.126Z,47.51
2022-08-29T01:41:43.110Z,44.94
2022-08-29T01:42:43.065Z,59.48
2022-08-29T01:43:43.080Z,59.05
2022-08-29T01:44:43.045Z,48.94
2022-08-29T01:45:43.097Z,43.80
2022-08-29T01:46:43.055Z,49.45
2022-08-29T01:47:43.027Z,58.95
2022-08-29T01:48:43.011Z,47.28
2022-08-29T01:49:43.012Z,59.52
2022-08-29T01:50:42.999Z,48.97
2022-08-29T01:51:43.022Z,49.86
2022-08-29T01:52:42.987Z,51.10
2022-08-29T01:53:42.972Z,54.93
2022-08-29T01:54:42.964Z,66.05
2022-08-29T01:55:42.965Z,53.64
2022-08-29T01:56:42.976Z,65.10
2022-08-29T01:57:42.940Z,61.74
2022-08-29T01:58:42.930Z,56.73
2022-08-29T01:59:42.922Z,61.24
2022-08-29T02:00:42.970Z,59.52
2022-08-29T02:01:42.965Z,60.98
2022-08-29T02:02:42.932Z,59.39
2022-08-29T02:03:42.938Z,59.80
2022-08-29T02:04:42.878Z,67.96
2022-08-29T02:05:42.898Z,67.01
2022-08-29T02:06:42.891Z,56.04
2022-08-29T02:07:42.855Z,66.04
2022-08-29T02:08:42.863Z,58.11
2022-08-29T02:09:45.485Z,66.29
2022-08-29T02:10:42.871Z,57.29
2022-08-29T02:11:42.849Z,58.69
2022-08-29T02:12:42.831Z,68.52
2022-08-29T02:13:42.818Z,64.75
2022-08-29T02:14:42.794Z,58.28
2022-08-29T02:15:42.796Z,47.65
2022-08-29T02:16:42.916Z,57.98
2022-08-29T02:17:42.778Z,61.49
2022-08-29T02:18:42.763Z,56.98
2022-08-29T02:19:42.755Z,54.30
2022-08-29T02:20:42.752Z,51.93
2022-08-29T02:21:42.768Z,63.00
2022-08-29T02:22:42.728Z,57.46
2022-08-29T02:23:42.722Z,59.78
2022-08-29T02:24:42.715Z,51.47
2022-08-29T02:25:42.706Z,56.85
2022-08-29T02:26:42.725Z,66.65
2022-08-29T02:27:42.691Z,58.57
2022-08-29T02:28:42.678Z,60.68
2022-08-29T02:29:42.674Z,63.96
2022-08-29T02:30:42.662Z,59.79
2022-08-29T02:31:42.727Z,58.88
2022-08-29T02:32:42.648Z,57.27
2022-08-29T02:33:42.635Z,56.10
2022-08-29T02:34:44.517Z,66.72
2022-08-29T02:35:43.009Z,58.72
2022-08-29T02:36:44.654Z,68.86
2022-08-29T02:37:42.610Z,59.74
2022-08-29T02:38:42.602Z,55.04
2022-08-29T02:39:42.592Z,48.77
2022-08-29T02:40:42.681Z,53.52
2022-08-29T02:41:44.529Z,62.40
2022-08-29T02:42:42.610Z,51.36
2022-08-29T02:43:42.554Z,64.61
2022-08-29T02:44:42.562Z,57.69
2022-08-29T02:45:42.537Z,53.80
2022-08-29T02:46:42.631Z,49.78
2022-08-29T02:47:42.520Z,56.64
2022-08-29T02:48:42.517Z,62.45
2022-08-29T02:49:43.499Z,61.63
2022-08-29T02:50:42.488Z,50.56
2022-08-29T02:51:42.526Z,51.77
2022-08-29T02:52:42.478Z,68.84
2022-08-29T02:53:42.467Z,59.63
2022-08-29T02:54:42.457Z,61.44
2022-08-29T02:55:42.453Z,53.40
2022-08-29T02:56:42.468Z,67.75
2022-08-29T02:57:42.430Z,62.35
2022-08-29T02:58:42.420Z,57.87
2022-08-29T02:59:42.415Z,68.70
2022-08-29T03:00:42.431Z,64.29
2022-08-29T03:01:42.455Z,55.96
2022-08-29T03:02:42.388Z,52.45
2022-08-29T03:03:42.381Z,67.58
2022-08-29T03:04:42.370Z,66.92
2022-08-29T03:05:42.360Z,59.10
2022-08-29T03:06:42.384Z,60.83
2022-08-29T03:07:42.345Z,64.89
2022-08-29T03:08:42.342Z,56.13
2022-08-29T03:09:42.328Z,56.06
2022-08-29T03:10:42.321Z,61.39
2022-08-29T03:11:42.350Z,67.18
2022-08-29T03:12:42.350Z,65.39
2022-08-29T03:13:42.300Z,56.22
2022-08-29T03:14:42.297Z,57.56
2022-08-29T03:15:42.319Z,51.25
2022-08-29T03:16:42.308Z,64.78
2022-08-29T03:17:42.262Z,63.63
2022-08-29T03:18:42.278Z,61.45
2022-08-29T03:19:42.254Z,65.00
2022-08-29T03:20:42.240Z,68.89
2022-08-29T03:21:42.263Z,64.18
2022-08-29T03:22:42.261Z,61.87
2022-08-29T03:23:42.225Z,65.00
2022-08-29T03:24:42.211Z,63.09
2022-08-29T03:25:42.231Z,67.70
2022-08-29T03:26:42.228Z,69.24
2022-08-29T03:27:42.189Z,66.84
2022-08-29T03:28:42.332Z,60.26
2022-08-29T03:29:42.174Z,66.69
2022-08-29T03:30:42.184Z,68.66
2022-08-29T03:31:42.251Z,65.56
2022-08-29T03:32:42.138Z,57.21
2022-08-29T03:33:42.142Z,64.33
2022-08-29T03:34:42.128Z,69.89
2022-08-29T03:35:42.118Z,68.17
2022-08-29T03:36:42.179Z,63.92
2022-08-29T03:37:42.103Z,65.38
2022-08-29T03:38:42.156Z,62.80
2022-08-29T03:39:42.085Z,65.73
2022-08-29T03:40:42.172Z,67.09
2022-08-29T03:41:42.126Z,71.75
2022-08-29T03:42:42.056Z,65.91
2022-08-29T03:43:42.051Z,61.92
2022-08-29T03:44:42.045Z,69.48
2022-08-29T03:45:42.026Z,67.46
2022-08-29T03:46:43.157Z,65.89
2022-08-29T03:47:42.022Z,68.85
2022-08-29T03:48:42.011Z,67.34
2022-08-29T03:49:42.005Z,67.48
2022-08-29T03:50:41.999Z,66.72
2022-08-29T03:51:42.029Z,63.95
2022-08-29T03:52:41.974Z,71.95
2022-08-29T03:53:41.970Z,70.79
2022-08-29T03:54:41.979Z,62.42
2022-08-29T03:55:41.955Z,70.69
2022-08-29T03:56:41.946Z,61.60
2022-08-29T03:57:41.990Z,64.17
2022-08-29T03:58:41.936Z,59.82
2022-08-29T03:59:41.919Z,69.29
2022-08-29T04:00:41.913Z,63.42
2022-08-29T04:01:41.974Z,66.43
2022-08-29T04:02:41.934Z,65.57
2022-08-29T04:03:41.935Z,69.73
2022-08-29T04:04:41.877Z,65.08
2022-08-29T04:05:41.866Z,66.36
2022-08-29T04:06:41.894Z,68.17
2022-08-29T04:07:41.853Z,70.44
2022-08-29T04:08:41.844Z,63.05
2022-08-29T04:09:41.836Z,58.90
2022-08-29T04:10:41.840Z,69.26
2022-08-29T04:11:42.009Z,71.30
2022-08-29T04:12:41.819Z,65.65
2022-08-29T04:13:41.810Z,67.83
2022-08-29T04:14:41.791Z,73.07
2022-08-29T04:15:41.864Z,65.64
2022-08-29T04:16:41.806Z,65.80
2022-08-29T04:17:52.711Z,68.39
2022-08-29T04:18:42.749Z,71.53
2022-08-29T04:19:42.747Z,69.11
2022-08-29T04:20:41.744Z,68.62
2022-08-29T04:21:41.733Z,69.97
2022-08-29T04:22:41.762Z,71.41
2022-08-29T04:23:41.716Z,66.83
2022-08-29T04:24:41.695Z,67.31
2022-08-29T04:25:42.695Z,69.99
2022-08-29T04:26:41.687Z,69.07
2022-08-29T04:27:41.707Z,66.29
2022-08-29T04:28:41.671Z,70.76
2022-08-29T04:29:41.660Z,70.60
2022-08-29T04:30:41.659Z,70.87
2022-08-29T04:31:41.709Z,66.90
2022-08-29T04:32:41.679Z,70.89
2022-08-29T04:33:41.634Z,72.61
2022-08-29T04:34:41.638Z,61.91
2022-08-29T04:35:41.615Z,66.22
2022-08-29T04:36:41.602Z,64.95
2022-08-29T04:37:41.626Z,70.89
2022-08-29T04:38:41.583Z,71.06
2022-08-29T04:39:41.574Z,69.80
2022-08-29T04:40:41.621Z,67.83
2022-08-29T04:41:41.556Z,71.87
2022-08-29T04:42:41.579Z,72.54
2022-08-29T04:43:41.541Z,63.39
2022-08-29T04:44:41.533Z,67.89
2022-08-29T04:45:41.529Z,71.30
2022-08-29T04:46:41.558Z,69.45
2022-08-29T04:47:41.538Z,65.04
2022-08-29T04:48:41.497Z,68.38
2022-08-29T04:49:41.490Z,69.47
2022-08-29T04:50:41.486Z,70.98
2022-08-29T04:51:41.473Z,67.73
2022-08-29T04:52:41.495Z,68.22
2022-08-29T04:53:41.462Z,62.44
2022-08-29T04:54:41.449Z,72.64
2022-08-29T04:55:41.444Z,66.70
2022-08-29T04:56:44.350Z,67.94
2022-08-29T04:57:42.450Z,68.71
2022-08-29T04:58:41.411Z,70.43
2022-08-29T04:59:41.398Z,61.60
2022-08-29T05:00:41.397Z,65.23
2022-08-29T05:01:42.444Z,70.21
2022-08-29T05:02:41.466Z,68.56
2022-08-29T05:03:41.367Z,63.93
2022-08-29T05:04:41.360Z,64.11
2022-08-29T05:05:41.348Z,70.14
2022-08-29T05:06:41.362Z,65.53
2022-08-29T05:07:41.363Z,67.53
2022-08-29T05:08:41.336Z,69.64
2022-08-29T05:09:41.337Z,71.21
2022-08-29T05:10:41.314Z,71.69
2022-08-29T05:11:41.308Z,69.38
2022-08-29T05:12:41.323Z,69.05
2022-08-29T05:13:42.492Z,71.99
2022-08-29T05:14:41.308Z,68.10
2022-08-29T05:15:41.300Z,67.45
2022-08-29T05:16:41.263Z,68.45
2022-08-29T05:17:41.281Z,69.92
2022-08-29T05:18:41.241Z,71.04
2022-08-29T05:19:42.915Z,71.55
2022-08-29T05:20:41.230Z,71.16
2022-08-29T05:21:41.217Z,63.02
2022-08-29T05:22:41.237Z,68.40
2022-08-29T05:23:41.202Z,68.74
2022-08-29T05:24:41.187Z,70.28
2022-08-29T05:25:41.176Z,70.68
2022-08-29T05:26:41.173Z,68.48
2022-08-29T05:27:41.189Z,64.72
2022-08-29T05:28:41.155Z,70.90
2022-08-29T05:29:41.147Z,69.59
2022-08-29T05:30:41.204Z,66.93
2022-08-29T05:31:41.311Z,72.59
2022-08-29T05:32:41.154Z,69.55
2022-08-29T05:33:41.113Z,65.40
2022-08-29T05:34:41.105Z,70.26
2022-08-29T05:35:41.097Z,68.19
2022-08-29T05:36:41.089Z,67.87
2022-08-29T05:37:41.108Z,66.82
2022-08-29T05:38:41.070Z,67.53
2022-08-29T05:39:41.058Z,69.74
2022-08-29T05:40:41.095Z,64.01
2022-08-29T05:41:41.045Z,69.50
2022-08-29T05:42:41.064Z,67.35
2022-08-29T05:43:41.030Z,68.66
2022-08-29T05:44:41.018Z,66.56
2022-08-29T05:45:41.004Z,65.91
2022-08-29T05:46:41.082Z,70.15
2022-08-29T05:47:41.039Z,70.26
2022-08-29T05:48:40.986Z,69.11
2022-08-29T05:49:40.976Z,68.65
2022-08-29T05:50:40.970Z,70.71
2022-08-29T05:51:40.954Z,69.47
2022-08-29T05:52:40.991Z,65.69
2022-08-29T05:53:40.935Z,65.11
2022-08-29T05:54:40.928Z,69.31
2022-08-29T05:55:40.920Z,69.54
2022-08-29T05:56:40.916Z,58.52
2022-08-29T05:57:40.913Z,66.29
2022-08-29T05:58:40.928Z,67.17
2022-08-29T05:59:40.891Z,68.49
2022-08-29T06:00:40.992Z,65.08
2022-08-29T06:01:40.877Z,62.66
2022-08-29T06:02:40.980Z,63.46
2022-08-29T06:03:45.377Z,67.58
2022-08-29T06:04:42.846Z,68.53
2022-08-29T06:05:40.844Z,65.86
2022-08-29T06:06:40.838Z,68.36
2022-08-29T06:07:40.832Z,67.98
2022-08-29T06:08:40.849Z,64.77
2022-08-29T06:09:40.814Z,61.40
2022-08-29T06:10:40.803Z,69.65
2022-08-29T06:11:40.800Z,68.93
2022-08-29T06:12:40.788Z,66.02
2022-08-29T06:13:40.812Z,63.91
2022-08-29T06:14:40.771Z,66.40
2022-08-29T06:15:40.851Z,66.99
2022-08-29T06:16:40.755Z,61.11
2022-08-29T06:17:40.741Z,64.07
2022-08-29T06:18:40.764Z,69.55
2022-08-29T06:19:40.724Z,70.62
2022-08-29T06:20:40.715Z,67.21
2022-08-29T06:21:40.707Z,64.98
2022-08-29T06:22:40.792Z,64.81
2022-08-29T06:23:40.723Z,70.05
2022-08-29T06:24:42.569Z,66.70
2022-08-29T06:25:40.725Z,67.36
2022-08-29T06:26:40.661Z,63.37
2022-08-29T06:27:40.658Z,68.97
2022-08-29T06:28:40.675Z,63.86
2022-08-29T06:29:43.040Z,68.55
2022-08-29T06:30:40.648Z,66.53
2022-08-29T06:31:40.625Z,71.85
2022-08-29T06:32:40.617Z,64.58
2022-08-29T06:33:40.639Z,62.52
2022-08-29T06:34:40.603Z,66.14
2022-08-29T06:35:40.588Z,67.83
2022-08-29T06:36:40.576Z,67.24
2022-08-29T06:37:40.574Z,63.69
2022-08-29T06:38:40.583Z,68.09
2022-08-29T06:39:41.559Z,64.69
2022-08-29T06:40:40.622Z,60.71
2022-08-29T06:41:40.544Z,64.19
2022-08-29T06:42:40.536Z,67.67
2022-08-29T06:43:40.559Z,69.53
2022-08-29T06:44:44.393Z,63.37
2022-08-29T06:45:41.515Z,65.39
2022-08-29T06:46:40.533Z,70.78
2022-08-29T06:47:40.495Z,63.51
2022-08-29T06:48:40.515Z,67.27
2022-08-29T06:49:40.474Z,68.29
2022-08-29T06:50:45.330Z,68.87
2022-08-29T06:51:42.462Z,65.07
2022-08-29T06:52:40.462Z,64.94
2022-08-29T06:53:40.753Z,70.28
2022-08-29T06:54:40.434Z,62.88
2022-08-29T06:55:40.434Z,67.81
2022-08-29T06:56:40.424Z,68.90
2022-08-29T06:57:40.409Z,69.30
2022-08-29T06:58:40.427Z,67.41
2022-08-29T06:59:40.395Z,66.41
2022-08-29T07:00:40.932Z,64.59
2022-08-29T07:01:40.434Z,60.22
2022-08-29T07:02:40.476Z,66.28
2022-08-29T07:03:40.392Z,65.71
2022-08-29T07:04:40.387Z,71.14
2022-08-29T07:05:40.350Z,70.07
2022-08-29T07:06:40.358Z,58.68
2022-08-29T07:07:40.329Z,67.72
2022-08-29T07:08:54.973Z,62.03
2022-08-29T07:09:42.317Z,61.48
2022-08-29T07:10:40.310Z,64.95
2022-08-29T07:11:41.259Z,68.88
2022-08-29T07:12:41.303Z,66.69
2022-08-29T07:13:40.318Z,62.23
2022-08-29T07:14:40.274Z,68.27
2022-08-29T07:15:40.365Z,67.59
2022-08-29T07:16:40.265Z,59.32
2022-08-29T07:17:40.250Z,64.95
2022-08-29T07:18:40.291Z,66.10
2022-08-29T07:19:40.230Z,66.33
2022-08-29T07:20:40.241Z,62.56
2022-08-29T07:21:40.228Z,67.06
2022-08-29T07:22:40.215Z,70.00
2022-08-29T07:23:40.229Z,61.05
2022-08-29T07:24:40.198Z,66.63
2022-08-29T07:25:40.189Z,69.38
2022-08-29T07:26:40.181Z,67.18
2022-08-29T07:27:40.178Z,61.47
2022-08-29T07:28:42.248Z,59.37
2022-08-29T07:29:41.150Z,69.43
2022-08-29T07:30:40.213Z,66.96
2022-08-29T07:31:40.146Z,59.92
2022-08-29T07:32:40.129Z,64.62
2022-08-29T07:33:40.152Z,67.66
2022-08-29T07:34:40.120Z,66.48
2022-08-29T07:35:40.099Z,65.59
2022-08-29T07:36:40.115Z,61.38
2022-08-29T07:37:40.091Z,63.43
2022-08-29T07:38:40.082Z,67.69
2022-08-29T07:39:40.108Z,67.14
2022-08-29T07:40:40.109Z,70.17
2022-08-29T07:41:40.074Z,64.29
2022-08-29T07:42:40.046Z,67.65
2022-08-29T07:43:40.041Z,67.39
2022-08-29T07:44:40.059Z,67.98
2022-08-29T07:45:40.067Z,66.11
2022-08-29T07:46:40.016Z,66.71
2022-08-29T07:47:40.011Z,63.60
2022-08-29T07:48:40.025Z,62.63
2022-08-29T07:49:41.963Z,64.00
2022-08-29T07:50:40.988Z,70.93
2022-08-29T07:51:42.341Z,65.90
2022-08-29T07:52:39.977Z,64.46
2022-08-29T07:53:39.989Z,61.29
2022-08-29T07:54:39.948Z,68.36
2022-08-29T07:55:39.949Z,64.81
2022-08-29T07:56:39.937Z,61.17
2022-08-29T07:57:40.172Z,65.07
2022-08-29T07:58:39.950Z,68.80
2022-08-29T07:59:39.916Z,65.70
2022-08-29T08:00:39.916Z,57.45
2022-08-29T08:01:39.947Z,63.36
2022-08-29T08:02:39.949Z,67.53
2022-08-29T08:03:39.912Z,66.86
2022-08-29T08:04:39.880Z,61.44
2022-08-29T08:05:39.881Z,67.68
2022-08-29T08:06:39.869Z,66.89
2022-08-29T08:07:40.364Z,64.42
2022-08-29T08:08:39.891Z,63.80
2022-08-29T08:09:39.839Z,69.52
2022-08-29T08:10:39.829Z,68.38
2022-08-29T08:11:39.826Z,66.00
2022-08-29T08:12:39.840Z,63.57
2022-08-29T08:13:39.838Z,71.47
2022-08-29T08:14:39.803Z,68.60
2022-08-29T08:15:39.799Z,64.35
2022-08-29T08:16:44.369Z,64.93
2022-08-29T08:17:43.902Z,66.57
2022-08-29T08:18:40.794Z,65.88
2022-08-29T08:19:39.763Z,64.20
2022-08-29T08:20:39.745Z,67.88
2022-08-29T08:21:49.338Z,66.14
2022-08-29T08:22:40.732Z,67.58
2022-08-29T08:23:39.734Z,66.25
2022-08-29T08:24:39.753Z,69.99
2022-08-29T08:25:39.713Z,68.23
2022-08-29T08:26:39.716Z,68.49
2022-08-29T08:27:43.537Z,64.28
2022-08-29T08:28:40.693Z,69.64
2022-08-29T08:29:39.704Z,66.65
2022-08-29T08:30:39.718Z,65.09
2022-08-29T08:31:39.813Z,66.94
2022-08-29T08:32:43.087Z,67.01
2022-08-29T08:33:40.641Z,63.75
2022-08-29T08:34:39.671Z,68.01
2022-08-29T08:35:41.996Z,65.54
2022-08-29T08:36:41.461Z,67.02
2022-08-29T08:37:40.625Z,65.09
2022-08-29T08:38:39.614Z,66.87
2022-08-29T08:39:39.641Z,67.01
2022-08-29T08:40:39.672Z,68.30
2022-08-29T08:41:39.591Z,62.80
2022-08-29T08:42:39.582Z,67.10
2022-08-29T08:43:39.621Z,72.55
2022-08-29T08:44:39.590Z,66.83
2022-08-29T08:45:39.606Z,62.25
2022-08-29T08:46:39.551Z,66.30
2022-08-29T08:47:39.545Z,67.47
2022-08-29T08:48:39.563Z,68.68
2022-08-29T08:49:39.553Z,68.31
2022-08-29T08:50:39.520Z,56.61
2022-08-29T08:51:39.514Z,67.82
2022-08-29T08:52:39.508Z,67.92
2022-08-29T08:53:39.496Z,65.64
2022-08-29T08:54:39.514Z,63.87
2022-08-29T08:55:39.479Z,62.21
2022-08-29T08:56:39.465Z,68.99
2022-08-29T08:57:39.461Z,67.36
2022-08-29T08:58:39.450Z,62.27
2022-08-29T08:59:39.500Z,66.94
2022-08-29T09:00:39.433Z,66.58
2022-08-29T09:01:39.491Z,66.32
2022-08-29T09:02:39.455Z,66.29
2022-08-29T09:03:39.450Z,66.28
2022-08-29T09:04:39.415Z,69.15
2022-08-29T09:05:39.581Z,62.37
2022-08-29T09:06:39.395Z,59.91
2022-08-29T09:07:39.399Z,63.02
2022-08-29T09:08:39.412Z,70.54
2022-08-29T09:09:39.365Z,66.19
2022-08-29T09:10:39.358Z,64.87
2022-08-29T09:11:39.364Z,62.17
2022-08-29T09:12:39.343Z,68.49
2022-08-29T09:13:39.386Z,63.88
2022-08-29T09:14:39.346Z,65.29
2022-08-29T09:15:39.318Z,65.24
2022-08-29T09:16:39.341Z,68.67
2022-08-29T09:17:39.302Z,68.09
2022-08-29T09:18:39.297Z,67.84
2022-08-29T09:19:39.316Z,65.65
2022-08-29T09:20:39.287Z,65.91
2022-08-29T09:21:41.731Z,66.79
2022-08-29T09:22:40.263Z,66.36
2022-08-29T09:23:39.300Z,68.68
2022-08-29T09:24:39.253Z,67.33
2022-08-29T09:25:39.249Z,56.19
2022-08-29T09:26:39.233Z,65.09
2022-08-29T09:27:39.234Z,66.57
2022-08-29T09:28:39.217Z,66.18
2022-08-29T09:29:39.231Z,66.38
2022-08-29T09:30:40.210Z,67.51
2022-08-29T09:31:39.232Z,57.32
2022-08-29T09:32:39.187Z,70.23
2022-08-29T09:33:39.208Z,64.75
2022-08-29T09:35:07.356Z,63.16
2022-08-29T09:35:41.166Z,67.17
2022-08-29T09:36:39.159Z,66.63
2022-08-29T09:37:39.150Z,60.32
2022-08-29T09:38:39.154Z,65.43
2022-08-29T09:39:39.168Z,66.14
2022-08-29T09:40:39.166Z,65.88
2022-08-29T09:41:39.116Z,68.55
2022-08-29T09:42:39.117Z,64.37
2022-08-29T09:43:39.104Z,66.30
2022-08-29T09:44:39.140Z,65.81
2022-08-29T09:45:39.142Z,61.00
2022-08-29T09:46:39.088Z,64.82
2022-08-29T09:47:39.077Z,66.65
2022-08-29T09:48:39.061Z,62.45
2022-08-29T09:49:39.084Z,65.34
2022-08-29T09:50:39.067Z,69.06
2022-08-29T09:51:39.047Z,61.46
2022-08-29T09:52:39.044Z,65.89
2022-08-29T09:53:39.030Z,64.47
2022-08-29T09:54:39.043Z,66.56
2022-08-29T09:55:39.006Z,68.30
2022-08-29T09:56:39.002Z,64.02
2022-08-29T09:57:38.997Z,65.65
2022-08-29T09:58:40.124Z,65.89
2022-08-29T09:59:40.283Z,59.80
2022-08-29T10:00:38.969Z,64.15
2022-08-29T10:01:39.011Z,63.24
2022-08-29T10:02:39.038Z,62.49
2022-08-29T10:03:39.659Z,57.93
2022-08-29T10:04:38.973Z,59.04
2022-08-29T10:05:38.928Z,63.55
2022-08-29T10:06:43.493Z,68.02
2022-08-29T10:07:40.930Z,60.26
2022-08-29T10:08:38.924Z,59.36
2022-08-29T10:09:38.924Z,68.66
2022-08-29T10:10:38.900Z,69.56
2022-08-29T10:11:38.882Z,64.91
2022-08-29T10:12:38.874Z,65.56
2022-08-29T10:13:38.863Z,64.26
2022-08-29T10:14:38.910Z,62.58
2022-08-29T10:15:52.062Z,65.49
2022-08-29T10:16:40.967Z,67.55
2022-08-29T10:17:38.846Z,61.60
2022-08-29T10:18:38.830Z,66.59
2022-08-29T10:19:38.854Z,69.64
2022-08-29T10:20:38.824Z,61.70
2022-08-29T10:21:38.817Z,66.55
2022-08-29T10:22:38.809Z,62.63
2022-08-29T10:23:38.796Z,68.72
2022-08-29T10:24:38.826Z,69.85
2022-08-29T10:25:38.775Z,59.07
2022-08-29T10:26:38.777Z,60.72
2022-08-29T10:27:38.767Z,67.87
2022-08-29T10:28:38.748Z,68.14
2022-08-29T10:29:38.769Z,62.08
2022-08-29T10:30:38.737Z,64.42
2022-08-29T10:31:38.769Z,68.19
2022-08-29T10:32:38.730Z,64.89
2022-08-29T10:33:38.718Z,60.16
2022-08-29T10:34:38.748Z,65.50
2022-08-29T10:35:38.712Z,67.28
2022-08-29T10:36:38.696Z,63.45
2022-08-29T10:37:38.691Z,65.88
2022-08-29T10:38:38.676Z,60.57
2022-08-29T10:39:38.676Z,68.73
2022-08-29T10:40:38.724Z,62.14
2022-08-29T10:41:38.667Z,54.68
2022-08-29T10:42:38.653Z,65.96
2022-08-29T10:43:38.638Z,66.32
2022-08-29T10:44:38.639Z,64.81
2022-08-29T10:45:38.666Z,61.60
2022-08-29T10:46:38.620Z,64.06
2022-08-29T10:47:38.619Z,67.35
2022-08-29T10:48:38.605Z,69.51
2022-08-29T10:49:43.036Z,68.15
2022-08-29T10:50:47.008Z,65.61
2022-08-29T10:51:40.583Z,65.85
2022-08-29T10:52:38.580Z,66.61
2022-08-29T10:53:38.578Z,65.78
2022-08-29T10:54:38.565Z,65.32
2022-08-29T10:55:38.591Z,58.18
2022-08-29T10:56:38.559Z,67.75
2022-08-29T10:57:38.541Z,70.59
2022-08-29T10:58:38.544Z,65.65
2022-08-29T10:59:38.526Z,66.91
2022-08-29T11:00:38.575Z,65.18
2022-08-29T11:01:39.600Z,67.55
2022-08-29T11:02:38.502Z,63.62
2022-08-29T11:03:38.526Z,63.25
2022-08-29T11:04:38.493Z,68.49
2022-08-29T11:05:38.515Z,69.30
2022-08-29T11:06:38.477Z,67.71
2022-08-29T11:07:38.472Z,60.43
2022-08-29T11:08:38.466Z,65.80
2022-08-29T11:09:38.460Z,65.26
2022-08-29T11:10:38.479Z,67.30
2022-08-29T11:11:38.439Z,58.00
2022-08-29T11:12:38.437Z,67.54
2022-08-29T11:13:38.427Z,67.79
2022-08-29T11:14:38.411Z,68.67
2022-08-29T11:15:38.437Z,70.40
2022-08-29T11:16:38.477Z,68.06
2022-08-29T11:17:38.401Z,59.01
2022-08-29T11:18:38.391Z,61.72
2022-08-29T11:19:38.383Z,69.86
2022-08-29T11:20:38.404Z,67.53
2022-08-29T11:21:38.370Z,60.38
2022-08-29T11:22:38.361Z,66.46
2022-08-29T11:23:38.358Z,67.24
2022-08-29T11:24:38.342Z,65.95
2022-08-29T11:25:38.363Z,68.93
2022-08-29T11:26:38.327Z,64.34
2022-08-29T11:27:38.353Z,65.97
2022-08-29T11:28:38.333Z,68.12
2022-08-29T11:29:38.306Z,61.59
2022-08-29T11:30:40.418Z,66.42
2022-08-29T11:31:39.340Z,64.27
2022-08-29T11:32:38.298Z,66.99
2022-08-29T11:33:38.278Z,67.03
2022-08-29T11:34:38.274Z,60.99
2022-08-29T11:35:38.302Z,60.74
2022-08-29T11:36:38.277Z,66.39
2022-08-29T11:37:38.251Z,67.59
2022-08-29T11:38:38.265Z,67.51
2022-08-29T11:39:38.244Z,67.71
2022-08-29T11:41:40.309Z,67.67
2022-08-29T11:42:53.761Z,63.93
2022-08-29T11:43:40.220Z,64.35
2022-08-29T11:44:38.204Z,65.14
2022-08-29T11:45:38.224Z,68.67
2022-08-29T11:46:38.219Z,62.18
2022-08-29T11:47:40.898Z,63.85
2022-08-29T11:48:38.191Z,65.06
2022-08-29T11:49:38.205Z,65.55
2022-08-29T11:50:38.191Z,69.06
2022-08-29T11:51:38.160Z,67.49
2022-08-29T11:52:38.152Z,66.07
2022-08-29T11:53:38.157Z,65.98
2022-08-29T11:54:38.136Z,65.30
2022-08-29T11:55:38.131Z,68.61
2022-08-29T11:56:38.157Z,66.75
2022-08-29T11:57:38.118Z,65.15
2022-08-29T11:58:38.110Z,70.18
2022-08-29T11:59:38.117Z,66.51
2022-08-29T12:00:38.098Z,67.84
2022-08-29T12:01:38.114Z,66.44
2022-08-29T12:02:38.097Z,60.39
2022-08-29T12:03:38.125Z,64.30
2022-08-29T12:04:38.101Z,60.17
2022-08-29T12:05:38.053Z,68.13
2022-08-29T12:06:38.088Z,65.31
2022-08-29T12:07:38.035Z,64.66
2022-08-29T12:08:38.336Z,66.50
2022-08-29T12:09:38.028Z,64.49
2022-08-29T12:10:38.016Z,68.67
2022-08-29T12:11:38.047Z,66.55
2022-08-29T12:12:38.006Z,63.80
2022-08-29T12:13:37.995Z,65.64
2022-08-29T12:14:38.425Z,69.38
2022-08-29T12:15:38.983Z,64.63
2022-08-29T12:16:38.032Z,64.48
2022-08-29T12:18:00.410Z,64.53
2022-08-29T12:18:39.960Z,69.60
2022-08-29T12:19:37.959Z,69.61
2022-08-29T12:20:37.950Z,66.86
2022-08-29T12:21:37.992Z,63.65
2022-08-29T12:22:37.984Z,66.78
2022-08-29T12:23:37.933Z,68.14
2022-08-29T12:24:37.927Z,65.94
2022-08-29T12:25:37.900Z,68.66
2022-08-29T12:26:38.947Z,66.28
2022-08-29T12:27:37.903Z,61.56
2022-08-29T12:28:37.901Z,67.93
2022-08-29T12:29:41.006Z,64.20
2022-08-29T12:30:38.873Z,68.52
2022-08-29T12:31:37.929Z,65.53
2022-08-29T12:32:40.134Z,61.19
2022-08-29T12:33:38.847Z,67.58
2022-08-29T12:34:37.860Z,66.35
2022-08-29T12:35:37.851Z,62.33
2022-08-29T12:36:37.900Z,66.31
2022-08-29T12:37:37.831Z,67.16
2022-08-29T12:38:42.055Z,67.82
2022-08-29T12:39:38.818Z,66.63
2022-08-29T12:40:37.940Z,66.78
2022-08-29T12:41:38.322Z,63.50
2022-08-29T12:42:37.800Z,64.25
2022-08-29T12:43:37.791Z,63.75
2022-08-29T12:44:37.783Z,62.20
2022-08-29T12:45:37.782Z,70.04
2022-08-29T12:46:37.863Z,67.24
2022-08-29T12:47:37.759Z,66.91
2022-08-29T12:48:37.748Z,67.00
2022-08-29T12:49:37.741Z,65.38
2022-08-29T12:50:37.740Z,70.48
2022-08-29T12:51:37.769Z,68.29
2022-08-29T12:52:37.724Z,65.73
2022-08-29T12:53:37.717Z,67.57